Time;durP1;ratioP1;P1;durP2;ratioP2;P2;SDS_P1;SDS_P2;PMS_P1;PMS_P2;Temp;Humidity;BMP_temperature;BMP_pressure;BME280_temperature;BME280_humidity;BME280_pressure;Samples;Min_cycle;Max_cycle;Signal;HPM_P1;HPM_P2
2023/02/18 00:00:10;;;;;;;0.75;0.65;;;;;;;8.32;90.97;100883.72;5010426;28;20038;-69
2023/02/18 00:02:36;;;;;;;0.40;0.40;;;;;;;8.59;89.41;100887.66;5006961;28;20049;-69
2023/02/18 00:05:02;;;;;;;0.40;0.40;;;;;;;8.45;89.70;100892.53;5006680;28;20040;-69
2023/02/18 00:07:27;;;;;;;0.10;0.10;;;;;;;8.17;91.71;100889.66;5008376;28;20133;-68
2023/02/18 00:09:53;;;;;;;0.10;0.10;;;;;;;8.35;91.07;100891.09;5007876;28;20113;-69
2023/02/18 00:12:18;;;;;;;0.20;0.20;;;;;;;8.38;90.67;100903.81;5004123;28;20046;-69
2023/02/18 00:14:44;;;;;;;3.53;1.38;;;;;;;8.33;90.61;100889.84;5009123;28;20041;-69
2023/02/18 00:17:09;;;;;;;0.10;0.10;;;;;;;8.24;91.19;100889.94;5010001;28;20025;-69
2023/02/18 00:19:35;;;;;;;1.10;0.68;;;;;;;8.20;91.85;100878.28;5005608;28;20030;-68
2023/02/18 00:22:00;;;;;;;3.00;0.47;;;;;;;8.37;90.68;100886.16;5009115;28;20030;-69
2023/02/18 00:24:25;;;;;;;0.20;0.20;;;;;;;8.30;90.79;100880.59;5008128;28;20046;-68
2023/02/18 00:26:51;;;;;;;0.15;0.15;;;;;;;8.33;90.85;100895.22;5010353;28;20030;-69
2023/02/18 00:29:18;;;;;;;0.17;0.17;;;;;;;8.55;90.12;100900.16;5005549;28;20514;-69
2023/02/18 00:31:43;;;;;;;0.10;0.10;;;;;;;8.55;89.32;100898.28;5007284;28;20049;-69
2023/02/18 00:34:10;;;;;;;1.00;1.00;;;;;;;8.68;89.36;100905.19;5007649;28;20014;-69
2023/02/18 00:36:36;;;;;;;0.35;0.35;;;;;;;8.56;89.45;100907.88;5007409;28;20407;-69
2023/02/18 00:39:04;;;;;;;0.13;0.13;;;;;;;8.52;90.10;100901.59;4990316;28;20036;-69
2023/02/18 00:41:32;;;;;;;0.38;0.38;;;;;;;8.41;91.23;100902.38;5001656;28;20479;-69
2023/02/18 00:43:57;;;;;;;0.10;0.10;;;;;;;8.53;91.04;100905.06;5007895;28;20403;-69
2023/02/18 00:46:24;;;;;;;0.60;0.60;;;;;;;8.47;90.64;100901.84;5002681;28;20030;-69
2023/02/18 00:48:49;;;;;;;0.95;0.30;;;;;;;8.76;89.50;100906.22;5006206;28;20061;-69
2023/02/18 00:51:15;;;;;;;0.20;0.20;;;;;;;8.91;88.50;100909.00;5005047;28;20515;-69
2023/02/18 00:53:40;;;;;;;0.57;0.57;;;;;;;8.84;88.55;100903.41;5002132;28;20742;-69
2023/02/18 00:56:06;;;;;;;0.45;0.30;;;;;;;8.67;89.05;100913.59;5003410;28;20034;-68
2023/02/18 00:58:33;;;;;;;0.43;0.43;;;;;;;8.63;89.63;100908.09;5002220;28;20081;-69
2023/02/18 01:00:58;;;;;;;0.30;0.30;;;;;;;8.38;90.65;100911.88;5007049;28;20565;-69
2023/02/18 01:03:24;;;;;;;0.10;0.10;;;;;;;8.70;89.83;100910.22;5004079;28;20129;-69
2023/02/18 01:05:50;;;;;;;0.40;0.40;;;;;;;8.81;88.50;100916.72;5001711;28;20038;-69
2023/02/18 01:08:18;;;;;;;0.30;0.30;;;;;;;8.67;89.33;100913.59;5002995;28;20049;-69
2023/02/18 01:10:45;;;;;;;0.10;0.10;;;;;;;8.71;89.19;100919.88;5006163;28;20469;-69
2023/02/18 01:13:13;;;;;;;0.45;0.40;;;;;;;8.76;89.27;100923.09;5003757;28;20033;-69
2023/02/18 01:15:40;;;;;;;0.10;0.10;;;;;;;8.81;88.96;100920.19;5004055;28;20069;-69
2023/02/18 01:18:06;;;;;;;0.20;0.20;;;;;;;8.79;88.79;100924.31;4999018;28;20037;-69
2023/02/18 01:20:37;;;;;;;1.25;0.32;;;;;;;8.54;89.82;100926.22;5003423;28;20541;-69
2023/02/18 01:23:03;;;;;;;0.70;0.55;;;;;;;8.75;89.34;100920.75;4996753;28;20038;-69
2023/02/18 01:25:29;;;;;;;0.10;0.10;;;;;;;8.85;88.33;100921.09;5001571;28;20653;-68
2023/02/18 01:27:55;;;;;;;0.38;0.38;;;;;;;8.97;88.41;100923.78;5004415;28;20092;-69
2023/02/18 01:30:22;;;;;;;0.10;0.10;;;;;;;9.22;86.82;100921.03;4984924;28;20046;-69
2023/02/18 01:32:47;;;;;;;0.10;0.10;;;;;;;9.05;87.14;100922.09;5003869;28;20042;-69
2023/02/18 01:35:15;;;;;;;0.20;0.20;;;;;;;8.85;87.96;100925.66;5002092;28;20059;-69
2023/02/18 01:37:41;;;;;;;0.20;0.20;;;;;;;9.02;87.56;100922.75;5000803;28;20042;-69
2023/02/18 01:40:10;;;;;;;0.20;0.20;;;;;;;8.95;87.15;100917.94;4987367;28;20038;-69
2023/02/18 01:42:37;;;;;;;0.10;0.10;;;;;;;8.79;88.20;100924.31;5008986;28;20032;-69
2023/02/18 01:45:36;;;;;;;0.30;0.30;;;;;;;8.77;87.75;100907.75;5003750;28;20399;-69
2023/02/18 01:48:08;;;;;;;0.10;0.10;;;;;;;8.82;88.11;100915.59;5016014;28;20035;-69
2023/02/18 01:50:34;;;;;;;;;;;;;;;8.80;88.14;100913.25;4992182;28;20437;-68
2023/02/18 01:53:01;;;;;;;0.10;0.10;;;;;;;8.80;88.23;100918.63;5003131;28;19921;-69
2023/02/18 01:55:30;;;;;;;0.20;0.20;;;;;;;8.92;87.42;100913.22;4990042;28;20026;-69
2023/02/18 01:57:55;;;;;;;0.98;0.90;;;;;;;8.69;87.91;100911.38;5002623;28;20022;-69
2023/02/18 02:00:21;;;;;;;0.10;0.10;;;;;;;8.71;88.15;100901.84;4999639;28;20041;-69
2023/02/18 02:02:49;;;;;;;0.20;0.20;;;;;;;8.64;88.49;100904.31;4989601;28;20049;-68
2023/02/18 02:05:15;;;;;;;0.20;0.20;;;;;;;8.63;88.80;100915.38;5000122;28;20073;-68
2023/02/18 02:07:42;;;;;;;0.20;0.20;;;;;;;8.77;87.95;100902.38;4981057;28;20030;-68
2023/02/18 02:10:09;;;;;;;0.30;0.30;;;;;;;8.78;88.11;100902.06;5005411;28;20069;-69
2023/02/18 02:13:12;;;;;;;0.20;0.20;;;;;;;8.87;87.44;100900.03;5007348;28;20033;-69
2023/02/18 02:15:49;;;;;;;0.10;0.10;;;;;;;8.85;87.97;100894.22;5006877;28;20782;-69
2023/02/18 02:18:14;;;;;;;0.20;0.20;;;;;;;8.93;87.03;100901.38;5006558;28;20050;-69
2023/02/18 02:21:11;;;;;;;1.05;0.30;;;;;;;8.85;88.02;100902.28;4990019;28;20088;-69
2023/02/18 02:24:12;;;;;;;0.10;0.10;;;;;;;8.79;87.88;100900.94;5015937;28;20502;-68
2023/02/18 02:27:03;;;;;;;0.20;0.20;;;;;;;8.66;88.17;100904.75;5007537;28;20042;-70
2023/02/18 02:29:52;;;;;;;0.10;0.10;;;;;;;8.56;88.66;100897.13;5020429;28;20042;-67
2023/02/18 02:32:23;;;;;;;0.10;0.10;;;;;;;8.74;88.18;100901.19;5004048;28;20117;-70
2023/02/18 02:35:10;;;;;;;0.20;0.20;;;;;;;8.77;87.75;100897.81;5008995;28;20521;-67
2023/02/18 02:37:51;;;;;;;0.32;0.32;;;;;;;8.86;88.01;100898.50;5007414;28;20380;-68
2023/02/18 02:40:20;;;;;;;0.47;0.47;;;;;;;8.70;88.21;100892.22;5009766;28;20034;-67
2023/02/18 02:42:58;;;;;;;0.10;0.10;;;;;;;8.97;86.72;100883.47;5008994;28;20030;-69
2023/02/18 02:45:52;;;;;;;0.20;0.20;;;;;;;8.86;86.89;100882.38;5006341;28;20042;-67
2023/02/18 02:48:36;;;;;;;0.20;0.20;;;;;;;8.75;87.00;100875.88;5007813;28;20184;-67
2023/02/18 02:51:20;;;;;;;0.60;0.60;;;;;;;8.89;86.56;100879.00;5009110;28;20041;-68
2023/02/18 02:53:46;;;;;;;0.20;0.20;;;;;;;8.62;86.91;100874.31;5004029;28;20038;-68
2023/02/18 02:56:21;;;;;;;0.17;0.17;;;;;;;8.58;87.78;100865.38;5001180;28;20387;-68
2023/02/18 02:59:02;;;;;;;0.10;0.10;;;;;;;8.65;87.89;100862.16;5002460;28;20049;-68
2023/02/18 03:01:40;;;;;;;0.13;0.13;;;;;;;8.69;87.87;100857.66;5002943;28;20063;-67
2023/02/18 03:04:27;;;;;;;0.30;0.30;;;;;;;8.60;87.66;100859.66;5007328;28;20034;-67
2023/02/18 03:07:13;;;;;;;0.22;0.20;;;;;;;8.63;88.35;100853.66;5003899;28;20033;-68
2023/02/18 03:10:16;;;;;;;0.22;0.22;;;;;;;8.68;87.18;100861.47;4990432;28;20026;-67
2023/02/18 03:13:09;;;;;;;0.20;0.20;;;;;;;8.81;86.73;100858.44;5009589;28;20785;-68
2023/02/18 03:15:46;;;;;;;0.10;0.10;;;;;;;8.72;87.25;100867.72;5024378;28;20081;-67
2023/02/18 03:18:50;;;;;;;1.02;0.95;;;;;;;8.61;88.06;100862.03;5007691;28;20121;-69
2023/02/18 03:21:30;;;;;;;0.20;0.20;;;;;;;8.78;87.60;100864.50;4925966;28;20042;-68
2023/02/18 03:24:22;;;;;;;0.45;0.38;;;;;;;8.88;87.03;100847.91;5016126;28;20105;-68
2023/02/18 03:26:55;;;;;;;0.10;0.10;;;;;;;8.52;88.11;100857.88;5008545;28;20042;-68
2023/02/18 03:29:21;;;;;;;0.10;0.10;;;;;;;8.54;88.88;100864.47;4992400;28;20033;-67
2023/02/18 03:31:54;;;;;;;0.20;0.20;;;;;;;8.59;88.30;100856.22;5002896;28;20042;-69
2023/02/18 03:34:29;;;;;;;0.13;0.13;;;;;;;8.78;87.96;100853.75;5005533;28;20537;-69
2023/02/18 03:36:58;;;;;;;0.15;0.15;;;;;;;8.67;87.94;100857.97;5004958;28;20742;-67
2023/02/18 03:39:28;;;;;;;0.20;0.20;;;;;;;8.65;88.44;100854.84;5008235;28;20030;-69
2023/02/18 03:41:54;;;;;;;0.10;0.10;;;;;;;8.55;89.07;100855.31;5005131;28;20034;-69
2023/02/18 03:44:20;;;;;;;0.45;0.40;;;;;;;8.60;88.15;100852.41;5010810;28;20120;-67
2023/02/18 03:46:45;;;;;;;0.20;0.20;;;;;;;8.45;88.94;100858.44;4989938;28;20171;-69
2023/02/18 03:49:12;;;;;;;0.93;0.30;;;;;;;8.38;89.49;100863.56;5005583;28;20084;-69
2023/02/18 03:51:39;;;;;;;1.95;0.52;;;;;;;8.28;90.20;100853.31;5004833;28;20057;-69
2023/02/18 03:54:06;;;;;;;0.20;0.20;;;;;;;8.63;88.46;100867.81;5005214;28;20034;-68
2023/02/18 03:56:33;;;;;;;0.15;0.15;;;;;;;8.56;87.91;100864.94;5006706;28;20131;-68
2023/02/18 03:58:58;;;;;;;0.10;0.10;;;;;;;8.54;88.89;100864.47;5008543;28;20029;-69
2023/02/18 04:01:24;;;;;;;0.10;0.10;;;;;;;8.64;88.36;100871.31;5009115;28;20037;-69
2023/02/18 04:03:54;;;;;;;0.10;0.10;;;;;;;8.85;87.56;100871.97;5006678;28;20058;-68
2023/02/18 04:06:21;;;;;;;0.20;0.20;;;;;;;8.53;88.37;100870.97;5008515;28;20073;-68
2023/02/18 04:08:46;;;;;;;0.10;0.10;;;;;;;8.48;89.39;100859.69;5004457;28;20112;-69
2023/02/18 04:11:12;;;;;;;0.10;0.10;;;;;;;8.50;88.75;100871.63;5005950;28;20557;-69
2023/02/18 04:13:37;;;;;;;0.20;0.20;;;;;;;8.65;87.84;100868.28;5007798;28;20034;-69
2023/02/18 04:16:03;;;;;;;0.10;0.10;;;;;;;8.46;89.36;100868.06;5006110;28;20487;-68
2023/02/18 04:18:28;;;;;;;0.10;0.10;;;;;;;8.74;87.99;100863.59;4991350;28;20057;-69
2023/02/18 04:20:53;;;;;;;0.15;0.15;;;;;;;8.82;87.30;100868.06;4992103;28;20038;-68
2023/02/18 04:23:19;;;;;;;0.20;0.20;;;;;;;8.63;87.94;100856.34;4992080;28;20745;-69
2023/02/18 04:25:44;;;;;;;0.20;0.20;;;;;;;8.82;87.44;100853.84;5000662;28;20037;-69
2023/02/18 04:28:13;;;;;;;0.20;0.20;;;;;;;8.57;88.66;100846.94;5001884;28;20065;-70
2023/02/18 04:30:42;;;;;;;0.10;0.10;;;;;;;8.87;87.24;100835.59;4996371;28;20065;-69
2023/02/18 04:33:07;;;;;;;0.17;0.17;;;;;;;8.81;88.10;100828.09;5002313;28;20539;-69
2023/02/18 04:35:33;;;;;;;0.15;0.15;;;;;;;9.05;86.59;100825.38;4995164;28;20129;-70
2023/02/18 04:37:59;;;;;;;0.28;0.28;;;;;;;9.10;86.39;100831.28;4994270;28;20042;-69
2023/02/18 04:40:28;;;;;;;0.20;0.20;;;;;;;9.08;86.70;100822.78;5001984;28;20141;-68
2023/02/18 04:42:53;;;;;;;0.30;0.30;;;;;;;8.78;87.95;100820.75;4999500;28;20034;-71
2023/02/18 04:45:19;;;;;;;0.20;0.20;;;;;;;8.88;87.75;100821.03;4998765;28;20042;-70
2023/02/18 04:47:44;;;;;;;0.20;0.20;;;;;;;8.91;87.65;100815.00;4995212;28;20037;-70
2023/02/18 04:50:10;;;;;;;0.63;0.30;;;;;;;8.58;89.66;100806.34;4996063;28;20392;-70
2023/02/18 04:52:35;;;;;;;2.40;1.65;;;;;;;8.62;89.63;100817.97;5000306;28;20053;-70
2023/02/18 04:55:01;;;;;;;0.28;0.28;;;;;;;8.62;89.77;100814.50;4997673;28;20033;-70
2023/02/18 04:57:26;;;;;;;0.10;0.10;;;;;;;8.74;89.33;100809.91;5006662;28;20037;-70
2023/02/18 04:59:51;;;;;;;0.57;0.57;;;;;;;8.76;89.22;100807.66;4991835;28;20026;-70
2023/02/18 05:02:17;;;;;;;0.20;0.20;;;;;;;8.82;88.66;100806.31;4996677;28;20503;-71
2023/02/18 05:04:42;;;;;;;0.10;0.10;;;;;;;8.66;89.39;100805.44;4985309;28;20499;-70
2023/02/18 05:07:07;;;;;;;0.10;0.10;;;;;;;8.73;89.19;100799.50;4998233;28;20046;-69
2023/02/18 05:09:33;;;;;;;0.20;0.20;;;;;;;8.55;90.33;100798.19;5004703;28;20073;-71
2023/02/18 05:11:58;;;;;;;0.20;0.20;;;;;;;8.69;89.73;100801.31;4997751;28;20037;-71
2023/02/18 05:14:24;;;;;;;0.43;0.43;;;;;;;8.66;89.48;100800.06;5002534;28;20105;-69
2023/02/18 05:16:49;;;;;;;0.20;0.20;;;;;;;8.52;90.78;100799.63;5001643;28;20072;-70
2023/02/18 05:19:15;;;;;;;0.17;0.17;;;;;;;8.76;89.93;100793.44;4992718;28;20022;-70
2023/02/18 05:21:41;;;;;;;0.20;0.20;;;;;;;8.71;89.93;100788.31;4992132;28;20522;-71
2023/02/18 05:24:07;;;;;;;0.77;0.60;;;;;;;8.61;90.54;100792.25;4989785;28;20026;-70
2023/02/18 05:26:33;;;;;;;0.15;0.15;;;;;;;8.73;90.46;100789.53;5002121;28;20038;-69
2023/02/18 05:28:58;;;;;;;0.10;0.10;;;;;;;8.87;89.61;100784.59;4992101;28;20109;-69
2023/02/18 05:31:24;;;;;;;0.10;0.10;;;;;;;8.74;90.28;100783.06;4999576;28;20062;-69
2023/02/18 05:33:49;;;;;;;0.20;0.20;;;;;;;8.75;91.26;100783.84;5001391;28;20034;-69
2023/02/18 05:36:15;;;;;;;0.45;0.45;;;;;;;8.66;91.46;100781.28;4997312;28;20037;-69
2023/02/18 05:38:40;;;;;;;0.30;0.30;;;;;;;8.70;92.27;100784.06;4991624;28;20121;-69
2023/02/18 05:41:06;;;;;;;0.20;0.20;;;;;;;8.75;92.05;100784.59;4999245;28;20042;-69
2023/02/18 05:44:28;;;;;;;0.40;0.40;;;;;;;8.77;92.01;100779.69;4996352;28;20076;-69
2023/02/18 05:46:17;;;;;;;0.20;0.20;;;;;;;8.68;93.03;100776.34;5001898;28;20049;-69
2023/02/18 05:48:42;;;;;;;0.20;0.20;;;;;;;8.76;92.71;100783.50;4998713;28;20022;-69
2023/02/18 05:51:07;;;;;;;0.20;0.20;;;;;;;8.93;92.07;100767.13;5003575;28;20084;-69
2023/02/18 05:53:33;;;;;;;0.10;0.10;;;;;;;8.93;92.34;100772.47;4993104;28;20034;-69
2023/02/18 05:55:58;;;;;;;0.20;0.20;;;;;;;8.91;92.76;100765.88;4995175;28;20486;-69
2023/02/18 05:58:23;;;;;;;0.10;0.10;;;;;;;8.98;92.07;100763.41;4999556;28;20102;-69
2023/02/18 06:00:49;;;;;;;0.77;0.38;;;;;;;8.82;93.26;100757.97;4995038;28;20050;-68
2023/02/18 06:03:15;;;;;;;0.20;0.20;;;;;;;8.68;94.47;100762.13;4997262;28;20038;-68
2023/02/18 06:05:40;;;;;;;0.10;0.10;;;;;;;8.80;94.08;100773.66;5004738;28;20104;-69
2023/02/18 06:08:06;;;;;;;0.10;0.10;;;;;;;8.91;93.58;100768.56;4998718;28;20080;-69
2023/02/18 06:10:31;;;;;;;0.10;0.10;;;;;;;8.98;93.38;100774.91;4998915;28;20026;-69
2023/02/18 06:12:56;;;;;;;0.10;0.10;;;;;;;8.85;93.73;100761.88;5006897;28;20407;-69
2023/02/18 06:15:22;;;;;;;0.20;0.20;;;;;;;8.97;93.55;100745.72;4997821;28;20438;-69
2023/02/18 06:17:47;;;;;;;1.48;0.40;;;;;;;8.81;94.20;100742.19;5008634;28;20026;-69
2023/02/18 06:20:13;;;;;;;0.20;0.20;;;;;;;8.78;94.73;100740.97;4996084;28;20030;-69
2023/02/18 06:22:38;;;;;;;0.20;0.20;;;;;;;8.44;96.75;100746.84;5001515;28;20083;-68
2023/02/18 06:25:04;;;;;;;0.50;0.50;;;;;;;8.56;96.39;100727.25;5009082;28;20072;-69
2023/02/18 06:27:29;;;;;;;0.30;0.30;;;;;;;8.67;95.81;100742.56;5008480;28;20462;-69
2023/02/18 06:29:55;;;;;;;0.30;0.30;;;;;;;8.76;95.33;100724.44;5008830;28;20030;-69
2023/02/18 06:32:20;;;;;;;0.22;0.22;;;;;;;8.71;95.22;100716.59;5004414;28;20514;-69
2023/02/18 06:34:46;;;;;;;0.17;0.17;;;;;;;8.62;95.76;100704.44;5005380;28;20033;-69
2023/02/18 06:37:11;;;;;;;0.20;0.20;;;;;;;8.23;98.38;100705.19;4997602;28;20037;-69
2023/02/18 06:39:38;;;;;;;0.30;0.30;;;;;;;8.29;98.49;100698.47;5007267;28;20028;-69
2023/02/18 06:42:03;;;;;;;0.40;0.40;;;;;;;8.39;98.10;100688.06;5007767;28;20037;-69
2023/02/18 06:44:29;;;;;;;1.75;0.30;;;;;;;8.46;97.95;100690.19;5001187;28;20041;-69
2023/02/18 06:46:54;;;;;;;0.20;0.20;;;;;;;8.42;98.05;100698.09;5006162;28;20026;-69
2023/02/18 06:49:19;;;;;;;0.20;0.20;;;;;;;8.55;97.97;100693.50;5005913;28;20038;-69
2023/02/18 06:51:45;;;;;;;0.15;0.15;;;;;;;8.64;96.98;100688.78;5009063;28;20048;-69
2023/02/18 06:54:10;;;;;;;0.10;0.10;;;;;;;8.50;97.41;100678.41;5009465;28;20487;-69
2023/02/18 06:56:36;;;;;;;0.20;0.20;;;;;;;8.53;98.35;100661.66;5005936;28;20092;-69
2023/02/18 06:59:01;;;;;;;2.38;0.40;;;;;;;8.68;97.35;100658.25;4997731;28;20619;-69
2023/02/18 07:01:26;;;;;;;0.22;0.22;;;;;;;8.66;97.38;100652.44;4998163;28;20057;-69
2023/02/18 07:03:52;;;;;;;0.20;0.20;;;;;;;8.67;98.02;100661.28;4990785;28;21514;-69
2023/02/18 07:06:20;;;;;;;0.20;0.20;;;;;;;8.76;97.65;100657.31;4999109;28;20399;-69
2023/02/18 07:08:45;;;;;;;0.20;0.20;;;;;;;8.88;97.00;100645.75;4985075;28;20055;-69
2023/02/18 07:11:11;;;;;;;0.30;0.30;;;;;;;8.93;96.85;100638.22;5008243;28;20491;-69
2023/02/18 07:13:36;;;;;;;0.17;0.17;;;;;;;8.91;96.72;100634.28;5007266;28;20026;-69
2023/02/18 07:16:02;;;;;;;0.10;0.10;;;;;;;8.95;96.70;100633.28;4998174;28;20423;-69
2023/02/18 07:18:27;;;;;;;0.20;0.20;;;;;;;8.92;96.68;100630.50;4997325;28;20033;-69
2023/02/18 07:20:52;;;;;;;0.22;0.20;;;;;;;8.95;96.67;100616.38;4995343;28;20117;-69
2023/02/18 07:23:18;;;;;;;0.20;0.20;;;;;;;9.02;96.68;100613.88;4985138;28;20113;-70
2023/02/18 07:25:43;;;;;;;0.20;0.20;;;;;;;9.01;96.72;100620.38;4989611;28;20073;-69
2023/02/18 07:28:09;;;;;;;0.40;0.30;;;;;;;9.07;96.18;100619.78;4991586;28;20035;-69
2023/02/18 07:30:34;;;;;;;0.35;0.35;;;;;;;9.07;95.59;100627.84;4995909;28;20022;-69
2023/02/18 07:33:00;;;;;;;0.10;0.10;;;;;;;8.93;96.60;100632.06;4997885;28;20061;-69
2023/02/18 07:35:25;;;;;;;0.40;0.40;;;;;;;9.00;96.26;100608.84;5000075;28;20103;-69
2023/02/18 07:37:50;;;;;;;0.28;0.28;;;;;;;8.96;96.47;100605.28;4999268;28;20524;-69
2023/02/18 07:40:18;;;;;;;0.20;0.20;;;;;;;8.96;97.13;100593.78;4998485;28;20196;-69
2023/02/18 07:42:44;;;;;;;0.10;0.10;;;;;;;8.98;97.09;100575.41;4999915;28;20035;-69
2023/02/18 07:45:10;;;;;;;0.10;0.10;;;;;;;8.79;97.43;100562.66;5000707;28;20099;-69
2023/02/18 07:47:36;;;;;;;0.20;0.20;;;;;;;8.78;97.57;100561.09;5005154;28;20030;-69
2023/02/18 07:50:01;;;;;;;0.10;0.10;;;;;;;8.91;97.86;100553.75;4995426;28;20028;-69
2023/02/18 07:52:27;;;;;;;0.20;0.20;;;;;;;9.08;96.82;100564.13;5002177;28;20018;-69
2023/02/18 07:54:52;;;;;;;0.95;0.28;;;;;;;9.10;97.19;100559.19;4992480;28;20049;-69
2023/02/18 07:57:18;;;;;;;0.10;0.10;;;;;;;9.10;96.89;100549.25;4994638;28;20046;-70
2023/02/18 07:59:43;;;;;;;0.40;0.40;;;;;;;9.10;97.13;100549.25;5002122;28;20037;-69
2023/02/18 08:02:26;;;;;;;0.10;0.10;;;;;;;9.09;97.23;100539.63;5006785;28;20034;-69
2023/02/18 08:04:52;;;;;;;0.13;0.13;;;;;;;9.10;96.86;100530.44;5002158;28;20108;-69
2023/02/18 08:07:20;;;;;;;4.22;0.55;;;;;;;9.12;97.05;100510.53;5002224;28;20187;-69
2023/02/18 08:09:47;;;;;;;0.15;0.15;;;;;;;9.05;97.43;100506.53;5009168;28;20061;-69
2023/02/18 08:12:13;;;;;;;1.17;0.25;;;;;;;9.07;97.83;100498.91;4992017;28;20053;-69
2023/02/18 08:14:39;;;;;;;0.32;0.32;;;;;;;8.83;98.19;100499.09;5010152;28;20018;-69
2023/02/18 08:17:05;;;;;;;0.20;0.20;;;;;;;8.87;98.35;100489.22;4993646;28;20565;-69
2023/02/18 08:19:30;;;;;;;0.22;0.22;;;;;;;8.88;98.83;100484.63;5002512;28;20039;-69
2023/02/18 08:21:55;;;;;;;0.10;0.10;;;;;;;8.83;98.51;100482.19;4997950;28;20038;-69
2023/02/18 08:24:21;;;;;;;0.20;0.20;;;;;;;8.80;99.47;100488.25;5000921;28;20041;-69
2023/02/18 08:26:46;;;;;;;0.20;0.20;;;;;;;8.85;99.74;100490.69;5006160;28;20073;-69
2023/02/18 08:29:12;;;;;;;1.00;0.73;;;;;;;9.05;99.28;100497.69;5004596;28;20122;-69
2023/02/18 08:31:37;;;;;;;0.20;0.20;;;;;;;9.08;98.73;100497.78;5001789;28;20503;-69
2023/02/18 08:34:03;;;;;;;0.20;0.20;;;;;;;9.22;97.14;100486.56;5002993;28;20128;-70
2023/02/18 08:36:29;;;;;;;0.65;0.20;;;;;;;9.18;98.06;100482.25;5000311;28;20034;-69
2023/02/18 08:38:55;;;;;;;0.47;0.47;;;;;;;9.29;97.84;100492.09;4999134;28;20906;-69
2023/02/18 08:41:21;;;;;;;0.40;0.40;;;;;;;9.18;97.67;100472.28;5005112;28;20042;-69
2023/02/18 08:43:47;;;;;;;0.10;0.10;;;;;;;9.19;98.16;100473.06;5007996;28;20109;-69
2023/02/18 08:46:13;;;;;;;0.13;0.13;;;;;;;9.34;96.98;100462.28;5005125;28;20543;-69
2023/02/18 08:48:41;;;;;;;0.75;0.75;;;;;;;9.17;97.68;100460.00;5005944;28;20029;-69
2023/02/18 08:51:18;;;;;;;0.20;0.20;;;;;;;9.13;98.60;100461.81;5001767;28;20057;-69
2023/02/18 08:53:46;;;;;;;0.20;0.20;;;;;;;9.28;97.81;100463.69;5003876;28;20073;-69
2023/02/18 08:56:13;;;;;;;0.10;0.10;;;;;;;9.22;98.29;100453.56;4988539;28;20037;-69
2023/02/18 08:58:39;;;;;;;0.57;0.22;;;;;;;9.17;98.45;100445.78;4994624;28;20495;-69
2023/02/18 09:01:07;;;;;;;0.20;0.20;;;;;;;9.26;98.22;100431.03;4988052;28;20030;-69
2023/02/18 09:03:33;;;;;;;0.40;0.40;;;;;;;9.26;98.50;100422.19;4998567;28;20034;-69
2023/02/18 09:05:59;;;;;;;0.30;0.30;;;;;;;9.15;98.87;100418.47;4998336;28;20081;-69
2023/02/18 09:08:24;;;;;;;0.20;0.20;;;;;;;9.17;98.81;100418.91;5002775;28;20034;-69
2023/02/18 09:10:57;;;;;;;0.13;0.13;;;;;;;9.15;98.98;100410.44;4991640;28;20034;-69
2023/02/18 09:13:23;;;;;;;0.22;0.22;;;;;;;9.12;99.29;100397.72;4990039;28;20030;-69
2023/02/18 09:16:03;;;;;;;0.38;0.38;;;;;;;9.09;99.73;100389.22;4977503;28;20406;-69
2023/02/18 09:18:28;;;;;;;0.20;0.20;;;;;;;9.09;100.00;100375.78;4989291;28;20135;-68
2023/02/18 09:20:56;;;;;;;0.30;0.30;;;;;;;9.15;99.86;100354.03;4986801;28;20038;-69
2023/02/18 09:23:24;;;;;;;0.40;0.40;;;;;;;9.16;99.71;100352.88;5006340;28;20391;-68
2023/02/18 09:25:49;;;;;;;0.30;0.30;;;;;;;9.27;99.42;100349.28;5000185;28;20033;-69
2023/02/18 09:28:15;;;;;;;0.47;0.47;;;;;;;9.20;99.78;100338.41;5003016;28;20117;-69
2023/02/18 09:30:40;;;;;;;0.25;0.25;;;;;;;9.02;100.00;100340.72;5005209;28;20034;-69
2023/02/18 09:33:06;;;;;;;0.30;0.30;;;;;;;8.87;100.00;100335.38;4998302;28;20038;-68
2023/02/18 09:35:31;;;;;;;0.30;0.30;;;;;;;8.87;100.00;100338.06;4991935;28;20546;-68
2023/02/18 09:37:57;;;;;;;0.20;0.20;;;;;;;9.08;100.00;100336.63;4997623;28;20366;-69
2023/02/18 09:40:34;;;;;;;4.57;0.52;;;;;;;9.20;100.00;100326.84;4987697;28;20057;-69
2023/02/18 09:43:00;;;;;;;0.30;0.30;;;;;;;9.14;100.00;100312.94;5008035;28;20399;-68
2023/02/18 09:45:26;;;;;;;1.50;0.40;;;;;;;9.20;100.00;100313.44;5011671;28;20057;-69
2023/02/18 09:47:52;;;;;;;0.28;0.28;;;;;;;9.24;100.00;100300.84;4999642;28;21054;-68
2023/02/18 09:50:23;;;;;;;0.40;0.40;;;;;;;9.26;100.00;100294.00;5003006;28;20121;-68
2023/02/18 09:52:49;;;;;;;0.20;0.20;;;;;;;9.11;100.00;100297.53;5009920;28;20034;-68
2023/02/18 09:55:22;;;;;;;0.63;0.43;;;;;;;9.20;100.00;100291.94;4999413;28;20080;-68
2023/02/18 09:57:51;;;;;;;0.47;0.47;;;;;;;9.39;100.00;100300.00;4989774;28;20041;-68
2023/02/18 10:00:27;;;;;;;0.55;0.55;;;;;;;9.21;100.00;100277.38;5001854;28;20064;-69
2023/02/18 10:03:00;;;;;;;0.20;0.20;;;;;;;9.33;100.00;100278.00;5006471;28;20518;-69
2023/02/18 10:05:28;;;;;;;0.60;0.60;;;;;;;9.28;100.00;100288.25;5007522;28;20403;-69
2023/02/18 10:08:00;;;;;;;0.20;0.20;;;;;;;9.19;100.00;100274.28;5008323;28;20042;-69
2023/02/18 10:10:44;;;;;;;0.40;0.40;;;;;;;8.84;100.00;100237.53;4995781;28;20080;-68
2023/02/18 10:13:22;;;;;;;0.25;0.25;;;;;;;8.99;100.00;100247.44;5001698;28;20042;-68
2023/02/18 10:15:49;;;;;;;0.20;0.20;;;;;;;9.02;100.00;100260.13;5003287;28;20686;-69
2023/02/18 10:18:25;;;;;;;0.10;0.10;;;;;;;9.04;100.00;100251.72;4996716;28;20403;-68
2023/02/18 10:20:55;;;;;;;0.10;0.10;;;;;;;9.08;100.00;100234.56;5007943;28;20121;-69
2023/02/18 10:23:23;;;;;;;0.10;0.10;;;;;;;9.08;100.00;100239.16;5002364;28;20314;-68
2023/02/18 10:25:50;;;;;;;0.10;0.10;;;;;;;9.17;100.00;100242.41;5005063;28;20113;-69
2023/02/18 10:28:21;;;;;;;0.13;0.13;;;;;;;9.28;100.00;100229.94;4986562;28;20039;-68
2023/02/18 10:30:56;;;;;;;0.30;0.30;;;;;;;8.97;100.00;100230.09;5002031;28;20038;-68
2023/02/18 10:33:34;;;;;;;0.13;0.13;;;;;;;9.02;100.00;100243.25;5006497;28;20407;-69
2023/02/18 10:36:11;;;;;;;0.30;0.30;;;;;;;9.30;100.00;100227.69;5010477;28;20096;-68
2023/02/18 10:38:44;;;;;;;0.40;0.20;;;;;;;9.49;100.00;100226.84;5002773;28;20033;-69
2023/02/18 10:41:20;;;;;;;0.20;0.20;;;;;;;9.65;100.00;100220.25;4999772;28;20065;-68
2023/02/18 10:43:59;;;;;;;0.13;0.13;;;;;;;9.85;100.00;100224.41;4993583;28;20038;-68
2023/02/18 10:46:58;;;;;;;0.20;0.20;;;;;;;9.85;100.00;100215.56;4991140;28;20767;-68
2023/02/18 10:49:54;;;;;;;0.20;0.20;;;;;;;9.91;100.00;100209.50;5004534;28;20445;-69
2023/02/18 10:52:20;;;;;;;0.10;0.10;;;;;;;9.99;100.00;100210.41;5017029;28;20046;-68
2023/02/18 10:54:59;;;;;;;0.30;0.30;;;;;;;10.00;100.00;100190.44;5002885;28;20112;-69
2023/02/18 10:57:25;;;;;;;0.52;0.52;;;;;;;10.00;100.00;100185.84;5007565;28;20059;-69
2023/02/18 11:00:27;;;;;;;0.20;0.20;;;;;;;10.10;100.00;100179.09;5010657;28;20087;-69
2023/02/18 11:03:16;;;;;;;0.20;0.20;;;;;;;10.14;100.00;100168.38;4980603;28;20125;-69
2023/02/18 11:05:43;;;;;;;0.10;0.10;;;;;;;9.96;100.00;100165.41;4991865;28;20452;-69
2023/02/18 11:08:15;;;;;;;0.17;0.17;;;;;;;9.97;100.00;100164.25;4994916;28;20034;-69
2023/02/18 11:10:43;;;;;;;0.90;0.47;;;;;;;10.01;100.00;100154.31;4996332;28;20641;-68
2023/02/18 11:13:13;;;;;;;0.65;0.65;;;;;;;10.01;100.00;100163.19;4985407;28;20041;-68
2023/02/18 11:15:54;;;;;;;0.28;0.28;;;;;;;9.85;100.00;100153.72;4995806;28;20544;-69
2023/02/18 11:18:39;;;;;;;0.30;0.30;;;;;;;9.95;100.00;100150.38;5006713;28;20536;-68
2023/02/18 11:21:33;;;;;;;0.15;0.15;;;;;;;10.02;100.00;100145.13;4999925;28;20136;-69
2023/02/18 11:24:08;;;;;;;0.30;0.25;;;;;;;10.10;100.00;100136.06;4998935;28;20066;-69
2023/02/18 11:26:35;;;;;;;0.63;0.30;;;;;;;10.17;100.00;100136.13;5004199;28;20112;-69
2023/02/18 11:29:27;;;;;;;0.77;0.77;;;;;;;10.26;100.00;100133.94;5008094;28;20013;-69
2023/02/18 11:31:55;;;;;;;3.65;2.70;;;;;;;10.27;100.00;100124.75;4999616;28;20041;-69
2023/02/18 11:34:31;;;;;;;2.40;2.05;;;;;;;10.20;100.00;100113.13;5009475;28;20128;-69
2023/02/18 11:37:18;;;;;;;9.93;3.25;;;;;;;10.28;100.00;100118.22;5008590;28;20029;-68
2023/02/18 11:39:45;;;;;;;12.05;5.90;;;;;;;10.32;100.00;100107.47;5003737;28;20397;-69
2023/02/18 11:42:14;;;;;;;11.57;5.28;;;;;;;10.43;100.00;100103.03;5001005;28;20037;-69